createdAt,value
2023-04-11T00:01:32.000Z,982.90
2023-04-11T00:06:26.000Z,983.10
2023-04-11T00:11:20.000Z,983.15
2023-04-11T00:16:14.000Z,982.84
2023-04-11T00:21:08.000Z,982.95
2023-04-11T00:26:02.000Z,982.64
2023-04-11T00:30:56.000Z,982.83
2023-04-11T00:35:50.000Z,982.68
2023-04-11T00:40:44.000Z,982.99
2023-04-11T00:45:37.000Z,982.53
2023-04-11T00:50:31.000Z,982.58
2023-04-11T00:55:26.000Z,982.62
2023-04-11T01:00:19.000Z,982.77
2023-04-11T01:05:13.000Z,982.65
2023-04-11T01:10:05.000Z,982.17
2023-04-11T01:14:59.000Z,982.05
2023-04-11T01:19:53.000Z,982.10
2023-04-11T01:24:47.000Z,982.52
2023-04-11T01:29:41.000Z,982.25
2023-04-11T01:34:35.000Z,982.70
2023-04-11T01:39:28.000Z,982.74
2023-04-11T01:44:22.000Z,982.44
2023-04-11T01:49:16.000Z,982.34
2023-04-11T01:54:10.000Z,982.39
2023-04-11T01:59:05.000Z,982.36
2023-04-11T02:03:59.000Z,982.48
2023-04-11T02:08:53.000Z,982.38
2023-04-11T02:13:48.000Z,982.42
2023-04-11T02:18:42.000Z,982.44
2023-04-11T02:23:35.000Z,982.49
2023-04-11T02:28:29.000Z,982.40
2023-04-11T02:33:23.000Z,982.47
2023-04-11T02:38:17.000Z,982.45
2023-04-11T02:43:11.000Z,982.45
2023-04-11T02:48:05.000Z,982.39
2023-04-11T02:52:59.000Z,982.49
2023-04-11T02:57:53.000Z,982.66
2023-04-11T03:02:47.000Z,982.76
2023-04-11T03:07:41.000Z,982.75
2023-04-11T03:12:35.000Z,982.70
2023-04-11T03:17:29.000Z,982.66
2023-04-11T03:22:24.000Z,982.75
2023-04-11T03:27:21.000Z,982.75
2023-04-11T03:32:14.000Z,982.78
2023-04-11T03:37:05.000Z,982.85
2023-04-11T03:41:59.000Z,982.87
2023-04-11T03:46:52.000Z,982.83
2023-04-11T03:51:46.000Z,982.88
2023-04-11T03:56:40.000Z,982.98
2023-04-11T04:01:33.000Z,983.01
2023-04-11T04:06:27.000Z,982.99
2023-04-11T04:11:21.000Z,983.05
2023-04-11T04:16:14.000Z,983.15
2023-04-11T04:21:08.000Z,983.22
2023-04-11T04:26:02.000Z,983.23
2023-04-11T04:30:57.000Z,983.18
2023-04-11T04:35:51.000Z,983.10
2023-04-11T04:40:45.000Z,983.17
2023-04-11T04:45:38.000Z,983.23
2023-04-11T04:50:32.000Z,983.24
2023-04-11T04:55:27.000Z,983.18
2023-04-11T05:00:21.000Z,983.19
2023-04-11T05:05:15.000Z,983.21
2023-04-11T05:10:09.000Z,983.34
2023-04-11T05:15:03.000Z,983.25
2023-04-11T05:19:57.000Z,983.41
2023-04-11T05:24:51.000Z,983.39
2023-04-11T05:29:43.000Z,983.46
2023-04-11T05:34:38.000Z,983.41
2023-04-11T05:39:31.000Z,983.49
2023-04-11T05:44:25.000Z,983.63
2023-04-11T05:49:16.000Z,983.62
2023-04-11T05:54:16.000Z,983.71
2023-04-11T05:59:02.000Z,983.85
2023-04-11T06:03:56.000Z,983.80
2023-04-11T06:08:50.000Z,983.86
2023-04-11T06:13:44.000Z,983.82
2023-04-11T06:18:38.000Z,983.86
2023-04-11T06:23:32.000Z,983.83
2023-04-11T06:28:27.000Z,983.93
2023-04-11T06:33:20.000Z,983.92
2023-04-11T06:38:14.000Z,983.99
2023-04-11T06:43:07.000Z,984.03
2023-04-11T06:48:02.000Z,984.18
2023-04-11T06:52:57.000Z,984.21
2023-04-11T06:57:51.000Z,984.24
2023-04-11T07:02:45.000Z,984.28
2023-04-11T07:07:39.000Z,984.33
2023-04-11T07:12:34.000Z,984.34
2023-04-11T07:17:29.000Z,984.45
2023-04-11T07:22:24.000Z,984.38
2023-04-11T07:27:18.000Z,984.42
2023-04-11T07:32:12.000Z,984.45
2023-04-11T07:37:07.000Z,984.42
2023-04-11T07:42:01.000Z,984.49
2023-04-11T07:46:54.000Z,984.40
2023-04-11T07:51:49.000Z,984.45
2023-04-11T07:56:43.000Z,984.54
2023-04-11T08:01:36.000Z,984.52
2023-04-11T08:06:31.000Z,984.65
2023-04-11T08:11:26.000Z,984.71
2023-04-11T08:16:19.000Z,984.75
2023-04-11T08:21:12.000Z,984.72
2023-04-11T08:26:07.000Z,984.75
2023-04-11T08:31:02.000Z,984.83
2023-04-11T08:35:56.000Z,984.85
2023-04-11T08:40:51.000Z,984.81
2023-04-11T08:45:45.000Z,984.90
2023-04-11T08:50:40.000Z,984.95
2023-04-11T08:55:34.000Z,984.92
2023-04-11T09:00:29.000Z,984.91
2023-04-11T09:05:23.000Z,984.87
2023-04-11T09:10:18.000Z,984.93
2023-04-11T09:15:11.000Z,985.05
2023-04-11T09:20:06.000Z,985.04
2023-04-11T09:25:01.000Z,984.87
2023-04-11T09:29:55.000Z,984.89
2023-04-11T09:34:50.000Z,985.06
2023-04-11T09:39:46.000Z,984.99
2023-04-11T09:44:41.000Z,984.90
2023-04-11T09:49:37.000Z,984.94
2023-04-11T09:54:31.000Z,985.15
2023-04-11T09:59:24.000Z,985.07
2023-04-11T10:04:18.000Z,985.01
2023-04-11T10:09:13.000Z,984.98
2023-04-11T10:14:08.000Z,984.98
2023-04-11T10:19:01.000Z,985.10
2023-04-11T10:23:55.000Z,985.17
2023-04-11T10:28:49.000Z,985.27
2023-04-11T10:33:44.000Z,985.13
2023-04-11T10:38:38.000Z,985.17
2023-04-11T10:43:34.000Z,985.09
2023-04-11T10:48:33.000Z,985.19
2023-04-11T10:53:25.000Z,985.18
2023-04-11T10:58:18.000Z,985.20
2023-04-11T11:03:13.000Z,985.10
2023-04-11T11:08:07.000Z,985.11
2023-04-11T11:13:02.000Z,985.26
2023-04-11T11:17:57.000Z,985.19
2023-04-11T11:22:51.000Z,985.09
2023-04-11T11:27:46.000Z,985.04
2023-04-11T11:32:41.000Z,985.23
2023-04-11T11:37:35.000Z,985.07
2023-04-11T11:42:30.000Z,985.14
2023-04-11T11:47:22.000Z,985.11
2023-04-11T11:52:14.000Z,985.20
2023-04-11T11:57:09.000Z,985.21
2023-04-11T12:02:04.000Z,984.98
2023-04-11T12:06:58.000Z,985.14
2023-04-11T12:11:50.000Z,985.16
2023-04-11T12:16:43.000Z,984.98
2023-04-11T12:21:36.000Z,985.06
2023-04-11T12:26:30.000Z,985.07
2023-04-11T12:31:24.000Z,985.19
2023-04-11T12:36:18.000Z,985.15
2023-04-11T12:41:11.000Z,985.13
2023-04-11T12:46:06.000Z,985.12
2023-04-11T12:51:00.000Z,985.08
2023-04-11T12:55:53.000Z,985.23
2023-04-11T13:00:44.000Z,985.25
2023-04-11T13:05:38.000Z,985.19
2023-04-11T13:10:32.000Z,985.22
2023-04-11T13:15:26.000Z,985.16
2023-04-11T13:20:17.000Z,985.22
2023-04-11T13:25:11.000Z,985.19
2023-04-11T13:30:08.000Z,985.26
2023-04-11T13:35:04.000Z,985.16
2023-04-11T13:39:59.000Z,985.12
2023-04-11T13:44:53.000Z,985.07
2023-04-11T13:49:47.000Z,984.98
2023-04-11T13:54:41.000Z,985.05
2023-04-11T13:59:32.000Z,985.17
2023-04-11T14:04:25.000Z,985.01
2023-04-11T14:09:20.000Z,985.09
2023-04-11T14:14:15.000Z,985.15
2023-04-11T14:19:10.000Z,985.16
2023-04-11T14:24:04.000Z,985.14
2023-04-11T14:28:57.000Z,985.13
2023-04-11T14:33:51.000Z,985.08
2023-04-11T14:38:45.000Z,985.19
2023-04-11T14:43:40.000Z,985.02
2023-04-11T14:48:34.000Z,985.04
2023-04-11T14:53:28.000Z,985.03
2023-04-11T14:58:22.000Z,985.01
2023-04-11T15:03:16.000Z,984.95
2023-04-11T15:08:09.000Z,985.05
2023-04-11T15:13:03.000Z,984.94
2023-04-11T15:17:57.000Z,985.03
2023-04-11T15:22:49.000Z,984.96
2023-04-11T15:27:44.000Z,984.95
2023-04-11T15:32:35.000Z,984.90
2023-04-11T15:37:29.000Z,985.02
2023-04-11T15:42:22.000Z,984.94
2023-04-11T15:47:16.000Z,984.85
2023-04-11T15:52:10.000Z,984.88
2023-04-11T15:57:04.000Z,984.86
2023-04-11T16:01:58.000Z,984.70
2023-04-11T16:06:51.000Z,984.78
2023-04-11T16:11:46.000Z,984.67
2023-04-11T16:16:41.000Z,984.58
2023-04-11T16:21:36.000Z,984.66
2023-04-11T16:26:31.000Z,984.55
2023-04-11T16:31:25.000Z,984.54
2023-04-11T16:36:18.000Z,984.54
2023-04-11T16:41:10.000Z,984.53
2023-04-11T16:46:03.000Z,984.46
2023-04-11T16:50:54.000Z,984.43
2023-04-11T16:55:48.000Z,984.37
2023-04-11T17:00:41.000Z,984.43
2023-04-11T17:05:35.000Z,984.32
2023-04-11T17:10:29.000Z,984.35
2023-04-11T17:15:22.000Z,984.30
2023-04-11T17:20:17.000Z,984.28
2023-04-11T17:25:10.000Z,984.30
2023-04-11T17:30:04.000Z,984.26
2023-04-11T17:34:58.000Z,984.36
2023-04-11T17:39:50.000Z,984.27
2023-04-11T17:44:44.000Z,984.29
2023-04-11T17:49:38.000Z,984.31
2023-04-11T17:54:32.000Z,984.31
2023-04-11T17:59:26.000Z,984.24
2023-04-11T18:04:20.000Z,984.20
2023-04-11T18:09:17.000Z,984.16
2023-04-11T18:14:08.000Z,984.07
2023-04-11T18:19:03.000Z,984.04
2023-04-11T18:23:57.000Z,984.06
2023-04-11T18:28:48.000Z,984.10
2023-04-11T18:33:42.000Z,984.10
2023-04-11T18:38:36.000Z,984.12
2023-04-11T18:43:28.000Z,984.13
2023-04-11T18:48:21.000Z,984.13
2023-04-11T18:53:14.000Z,984.06
2023-04-11T18:58:08.000Z,984.14
2023-04-11T19:03:02.000Z,983.96
2023-04-11T19:07:53.000Z,984.05
2023-04-11T19:12:48.000Z,984.15
2023-04-11T19:17:42.000Z,983.98
2023-04-11T19:22:32.000Z,983.94
2023-04-11T19:27:26.000Z,983.93
2023-04-11T19:32:19.000Z,983.82
2023-04-11T19:37:13.000Z,983.73
2023-04-11T19:42:07.000Z,983.69
2023-04-11T19:47:02.000Z,983.65
2023-04-11T19:51:55.000Z,983.77
2023-04-11T19:56:48.000Z,983.78
2023-04-11T20:01:42.000Z,983.67
2023-04-11T20:06:36.000Z,983.63
2023-04-11T20:11:29.000Z,983.53
2023-04-11T20:16:23.000Z,983.38
2023-04-11T20:21:17.000Z,983.44
2023-04-11T20:26:11.000Z,983.39
2023-04-11T20:31:06.000Z,983.35
2023-04-11T20:36:00.000Z,983.27
2023-04-11T20:40:54.000Z,983.13
2023-04-11T20:45:48.000Z,982.98
2023-04-11T20:50:42.000Z,982.96
2023-04-11T20:55:37.000Z,982.94
2023-04-11T21:00:31.000Z,983.00
2023-04-11T21:05:25.000Z,982.81
2023-04-11T21:10:18.000Z,982.78
2023-04-11T21:15:09.000Z,982.65
2023-04-11T21:20:03.000Z,982.55
2023-04-11T21:24:56.000Z,982.52
2023-04-11T21:29:50.000Z,982.35
2023-04-11T21:34:44.000Z,982.37
2023-04-11T21:39:38.000Z,982.41
2023-04-11T21:44:32.000Z,982.35
2023-04-11T21:49:25.000Z,982.28
2023-04-11T21:54:17.000Z,982.31
2023-04-11T21:59:11.000Z,982.27
2023-04-11T22:04:05.000Z,982.08
2023-04-11T22:08:59.000Z,982.00
2023-04-11T22:13:52.000Z,982.02
2023-04-11T22:18:44.000Z,981.98
2023-04-11T22:23:38.000Z,981.86
2023-04-11T22:28:32.000Z,981.75
2023-04-11T22:33:26.000Z,981.65
2023-04-11T22:38:20.000Z,981.57
2023-04-11T22:43:14.000Z,981.56
2023-04-11T22:48:09.000Z,981.45
2023-04-11T22:53:02.000Z,981.26
2023-04-11T22:57:56.000Z,981.31
2023-04-11T23:02:49.000Z,981.31
2023-04-11T23:07:43.000Z,981.18
2023-04-11T23:12:38.000Z,981.12
2023-04-11T23:17:32.000Z,981.00
2023-04-11T23:22:26.000Z,980.92
2023-04-11T23:27:19.000Z,980.88
2023-04-11T23:32:12.000Z,980.74
2023-04-11T23:37:06.000Z,980.81
2023-04-11T23:42:00.000Z,980.74
2023-04-11T23:46:54.000Z,980.68
2023-04-11T23:51:49.000Z,980.61
2023-04-11T23:56:42.000Z,980.56
